Time;durP1;ratioP1;P1;durP2;ratioP2;P2;SDS_P1;SDS_P2;PMS_P1;PMS_P2;Temp;Humidity;BMP_temperature;BMP_pressure;BME280_temperature;BME280_humidity;BME280_pressure;Samples;Min_cycle;Max_cycle;Signal;HPM_P1;HPM_P2
2022/03/30 00:01:08;;;;;;;22.30;13.18;;;;;;;13.69;39.55;99313.25;5090764;28;20023;-76
2022/03/30 00:03:33;;;;;;;22.95;12.95;;;;;;;13.69;39.05;99320.47;5091852;28;20079;-76
2022/03/30 00:05:59;;;;;;;19.77;12.90;;;;;;;13.75;39.59;99333.22;5092019;28;20020;-76
2022/03/30 00:08:24;;;;;;;16.33;11.40;;;;;;;13.64;39.56;99318.31;5092064;28;20031;-75
2022/03/30 00:10:50;;;;;;;19.90;11.52;;;;;;;13.63;39.96;99313.94;5090561;28;20118;-76
2022/03/30 00:13:17;;;;;;;18.20;11.75;;;;;;;13.62;40.12;99319.50;5090453;28;20074;-77
2022/03/30 00:15:43;;;;;;;19.25;12.55;;;;;;;13.66;40.14;99327.06;5090408;28;20027;-76
2022/03/30 00:18:09;;;;;;;17.88;11.95;;;;;;;13.53;40.01;99304.41;5091740;28;20020;-76
2022/03/30 00:20:35;;;;;;;18.08;11.52;;;;;;;13.53;40.18;99302.56;5090199;28;20043;-77
2022/03/30 00:23:01;;;;;;;18.08;11.63;;;;;;;13.52;40.60;99310.81;5091766;28;20077;-76
2022/03/30 00:25:26;;;;;;;23.88;11.63;;;;;;;13.57;40.38;99314.66;5091391;28;20024;-76
2022/03/30 00:27:52;;;;;;;16.48;12.15;;;;;;;13.59;40.91;99318.03;5090300;28;20217;-76
2022/03/30 00:30:19;;;;;;;20.05;11.77;;;;;;;13.52;41.02;99308.94;5091206;28;20044;-76
2022/03/30 00:32:45;;;;;;;21.05;10.75;;;;;;;13.54;40.85;99315.00;5091448;28;20110;-76
2022/03/30 00:35:11;;;;;;;20.35;11.75;;;;;;;13.64;41.37;99317.47;5090282;28;20125;-76
2022/03/30 00:37:37;;;;;;;18.45;11.20;;;;;;;13.62;41.09;99312.28;5091417;28;20625;-76
2022/03/30 00:40:08;;;;;;;19.70;11.82;;;;;;;13.58;41.85;99312.81;5090066;28;20020;-76
2022/03/30 00:42:34;;;;;;;15.63;10.48;;;;;;;13.54;41.68;99311.47;5089838;28;20032;-76
2022/03/30 00:45:08;;;;;;;16.83;10.77;;;;;;;13.44;42.23;99302.78;5091368;28;20038;-76
2022/03/30 00:47:33;;;;;;;16.10;10.35;;;;;;;13.49;41.99;99311.19;5089802;28;20052;-76
2022/03/30 00:49:59;;;;;;;17.15;10.75;;;;;;;13.41;42.88;99303.13;5090019;28;20052;-76
2022/03/30 00:52:24;;;;;;;18.15;11.27;;;;;;;13.49;42.06;99303.94;5090993;28;20035;-75
2022/03/30 00:54:51;;;;;;;17.98;10.50;;;;;;;13.42;42.42;99292.19;5091174;28;20032;-76
2022/03/30 00:57:19;;;;;;;17.08;9.93;;;;;;;13.35;42.50;99283.13;5090890;28;20356;-76
2022/03/30 00:59:45;;;;;;;15.88;11.40;;;;;;;13.34;42.86;99284.16;5091188;28;20031;-76
2022/03/30 01:02:10;;;;;;;18.23;10.48;;;;;;;13.28;42.92;99270.56;5091054;28;20395;-76
2022/03/30 01:04:36;;;;;;;18.60;10.95;;;;;;;13.37;42.97;99293.72;5089706;28;20031;-75
2022/03/30 01:07:02;;;;;;;16.60;10.00;;;;;;;13.34;43.16;99286.00;5089763;28;20036;-76
2022/03/30 01:09:29;;;;;;;13.98;10.00;;;;;;;13.30;43.31;99284.69;5089652;28;20093;-76
2022/03/30 01:11:55;;;;;;;16.58;10.48;;;;;;;13.29;43.64;99291.09;5089483;28;20097;-76
2022/03/30 01:14:22;;;;;;;16.67;10.77;;;;;;;13.26;43.18;99278.00;5090751;28;20468;-76
2022/03/30 01:16:47;;;;;;;17.45;10.32;;;;;;;13.20;43.86;99271.47;5090534;28;20438;-76
2022/03/30 01:19:14;;;;;;;20.92;10.55;;;;;;;13.25;43.38;99282.53;5091103;28;20020;-76
2022/03/30 01:21:41;;;;;;;19.60;10.32;;;;;;;13.26;43.92;99288.75;5090559;28;20077;-77
2022/03/30 01:24:11;;;;;;;16.98;10.52;;;;;;;13.21;43.99;99288.44;5090554;28;20024;-77
2022/03/30 01:26:37;;;;;;;17.92;10.25;;;;;;;13.21;43.70;99285.75;5090612;28;20665;-77
2022/03/30 01:32:25;;;;;;;19.77;10.10;;;;;;;13.12;44.25;99270.63;5090291;28;20101;-76
2022/03/30 01:34:38;;;;;;;16.90;10.57;;;;;;;13.09;44.81;99269.16;5088317;28;20070;-76
2022/03/30 01:37:06;;;;;;;14.55;9.73;;;;;;;13.10;44.82;99278.06;5089093;28;20035;-76
2022/03/30 01:39:32;;;;;;;19.20;10.90;;;;;;;13.03;44.90;99271.72;5090416;28;20028;-76
2022/03/30 01:41:57;;;;;;;16.58;10.27;;;;;;;12.99;45.15;99265.84;5088515;28;20046;-76
2022/03/30 01:44:24;;;;;;;18.17;10.20;;;;;;;13.00;45.13;99272.88;5090412;28;20778;-77
2022/03/30 01:46:50;;;;;;;20.10;9.82;;;;;;;12.97;45.31;99267.81;5089103;28;20043;-76
2022/03/30 01:49:21;;;;;;;16.48;9.82;;;;;;;12.97;45.62;99269.69;5090399;28;20023;-76
2022/03/30 01:51:50;;;;;;;21.25;10.70;;;;;;;12.88;45.59;99254.59;5090741;28;20025;-76
2022/03/30 01:54:20;;;;;;;15.93;10.38;;;;;;;12.92;45.74;99262.13;5088520;28;20050;-76
2022/03/30 01:56:47;;;;;;;20.83;9.77;;;;;;;12.87;45.29;99255.63;5088124;28;20039;-76
2022/03/30 01:59:13;;;;;;;17.33;10.73;;;;;;;12.88;45.84;99274.28;5090202;28;20053;-76
2022/03/30 02:01:40;;;;;;;17.63;9.85;;;;;;;12.86;46.25;99265.53;5088731;28;20035;-76
2022/03/30 02:04:08;;;;;;;19.48;9.95;;;;;;;12.82;46.25;99263.34;5090491;28;20028;-76
2022/03/30 02:06:34;;;;;;;19.70;10.95;;;;;;;12.79;45.98;99261.84;5090203;28;20028;-76
2022/03/30 02:09:04;;;;;;;16.58;10.18;;;;;;;12.77;46.60;99252.28;5090558;28;20036;-76
2022/03/30 02:11:29;;;;;;;12.43;9.70;;;;;;;12.74;46.41;99242.69;5090038;28;20028;-77
2022/03/30 02:13:56;;;;;;;15.32;10.38;;;;;;;12.78;46.46;99245.88;5090082;28;20027;-76
2022/03/30 02:16:22;;;;;;;15.43;8.98;;;;;;;12.78;46.69;99245.88;5088715;28;20030;-76
2022/03/30 02:18:47;;;;;;;17.42;10.02;;;;;;;12.67;46.35;99222.88;5090019;28;20030;-76
2022/03/30 02:21:15;;;;;;;13.93;9.63;;;;;;;12.75;47.08;99240.84;5089951;28;20411;-72
2022/03/30 02:23:41;;;;;;;19.17;10.15;;;;;;;12.73;46.86;99241.03;5089856;28;20035;-72
2022/03/30 02:26:07;;;;;;;16.90;9.88;;;;;;;12.65;46.76;99224.09;5089812;28;20036;-72
2022/03/30 02:28:32;;;;;;;20.13;10.10;;;;;;;12.66;47.24;99236.50;5089159;28;20024;-72
2022/03/30 02:30:58;;;;;;;19.42;10.90;;;;;;;12.66;46.78;99233.81;5088895;28;20043;-72
2022/03/30 02:33:24;;;;;;;24.33;10.10;;;;;;;12.55;47.10;99220.75;5088974;28;20028;-72
2022/03/30 02:35:51;;;;;;;17.60;10.20;;;;;;;12.50;47.05;99205.16;5089104;28;20032;-72
2022/03/30 02:38:16;;;;;;;14.23;9.43;;;;;;;12.46;47.29;99208.34;5087873;28;20089;-72
2022/03/30 02:40:42;;;;;;;19.52;10.13;;;;;;;12.49;47.62;99225.00;5089185;28;20501;-72
2022/03/30 02:43:07;;;;;;;19.80;10.05;;;;;;;12.47;47.26;99223.47;5089071;28;20023;-72
2022/03/30 02:45:33;;;;;;;15.63;9.93;;;;;;;12.46;48.03;99224.50;5089144;28;20082;-72
2022/03/30 02:50:44;;;;;;;17.35;11.63;;;;;;;12.36;47.29;99213.09;5089182;28;20244;-72
2022/03/30 02:53:10;;;;;;;19.15;11.43;;;;;;;12.34;47.38;99210.56;5089128;28;20468;-73
2022/03/30 02:55:35;;;;;;;18.40;11.68;;;;;;;12.28;47.74;99213.94;5092193;28;20066;-72
2022/03/30 02:58:01;;;;;;;17.42;9.90;;;;;;;12.35;47.58;99231.06;5092520;28;20063;-72
2022/03/30 03:00:27;;;;;;;19.67;11.60;;;;;;;12.26;47.43;99218.69;5092428;28;20704;-72
2022/03/30 03:02:53;;;;;;;16.45;11.40;;;;;;;12.27;47.96;99225.72;5092502;28;20028;-72
2022/03/30 03:05:18;;;;;;;20.00;11.65;;;;;;;12.22;47.65;99227.25;5092941;28;20506;-76
2022/03/30 03:07:45;;;;;;;21.63;12.30;;;;;;;12.16;48.12;99222.56;5092579;28;20024;-76
2022/03/30 03:10:10;;;;;;;21.60;11.40;;;;;;;12.07;47.95;99224.44;5092783;28;20065;-76
2022/03/30 03:12:36;;;;;;;20.00;10.65;;;;;;;12.13;48.24;99239.03;5092592;28;20028;-76
2022/03/30 03:15:02;;;;;;;19.70;10.90;;;;;;;12.09;48.35;99232.31;5092446;28;20028;-76
2022/03/30 03:17:27;;;;;;;15.27;10.30;;;;;;;12.04;48.39;99223.91;5092180;28;20028;-76
2022/03/30 03:19:53;;;;;;;17.40;10.68;;;;;;;12.01;48.55;99226.94;5094304;28;20026;-76
2022/03/30 03:22:18;;;;;;;20.88;10.85;;;;;;;12.03;48.73;99228.44;5091824;28;20028;-72
2022/03/30 03:24:44;;;;;;;17.33;9.75;;;;;;;11.95;48.69;99215.03;5091937;28;20047;-72
2022/03/30 03:27:10;;;;;;;20.83;10.95;;;;;;;11.91;49.03;99207.47;5091767;28;20070;-72
2022/03/30 03:29:35;;;;;;;16.10;9.90;;;;;;;11.89;49.23;99214.88;5091766;28;20043;-72
2022/03/30 03:32:01;;;;;;;17.42;10.35;;;;;;;11.89;49.13;99214.88;5095105;28;20119;-72
2022/03/30 03:34:26;;;;;;;19.00;10.27;;;;;;;11.83;49.44;99219.06;5089868;28;20068;-72
2022/03/30 03:36:52;;;;;;;18.95;9.93;;;;;;;11.78;49.32;99220.59;5091674;28;20089;-72
2022/03/30 03:39:17;;;;;;;17.30;9.25;;;;;;;11.72;49.87;99208.69;5092407;28;20031;-72
2022/03/30 03:41:43;;;;;;;18.85;9.68;;;;;;;11.76;49.83;99219.91;5092000;28;20067;-72
2022/03/30 03:44:09;;;;;;;16.48;10.15;;;;;;;11.66;49.85;99213.88;5091600;28;20034;-72
2022/03/30 03:46:35;;;;;;;12.73;9.25;;;;;;;11.77;50.03;99227.81;5088948;28;20024;-72
2022/03/30 03:49:00;;;;;;;17.30;10.45;;;;;;;11.71;49.95;99220.44;5090137;28;20112;-72
2022/03/30 03:51:26;;;;;;;22.48;10.35;;;;;;;11.68;50.06;99214.56;5091598;28;20035;-72
2022/03/30 03:53:51;;;;;;;14.38;9.60;;;;;;;11.65;50.45;99212.19;5091906;28;20093;-72
2022/03/30 03:56:17;;;;;;;17.23;9.70;;;;;;;11.70;50.28;99220.63;5091721;28;20030;-72
2022/03/30 03:58:42;;;;;;;19.15;9.88;;;;;;;11.64;50.42;99205.16;5091979;28;20024;-73
2022/03/30 04:01:08;;;;;;;16.42;10.40;;;;;;;11.67;50.98;99220.94;5091003;28;20081;-73
2022/03/30 04:03:33;;;;;;;15.18;9.40;;;;;;;11.61;50.90;99210.84;5092046;28;20455;-72
2022/03/30 04:05:59;;;;;;;16.10;9.38;;;;;;;11.50;50.92;99193.22;5091900;28;20099;-72
2022/03/30 04:08:24;;;;;;;16.33;9.07;;;;;;;11.57;50.83;99211.16;5092101;28;20032;-73
2022/03/30 04:10:50;;;;;;;15.38;9.50;;;;;;;11.44;51.08;99194.72;5091983;28;20381;-73
2022/03/30 04:13:15;;;;;;;19.13;10.50;;;;;;;11.48;51.76;99206.81;5091674;28;20055;-73
2022/03/30 04:15:41;;;;;;;18.55;9.98;;;;;;;11.49;51.99;99213.03;5091713;28;20028;-73
2022/03/30 04:18:09;;;;;;;16.95;9.63;;;;;;;11.41;51.75;99194.22;5090476;28;20036;-72
2022/03/30 04:20:36;;;;;;;18.63;9.65;;;;;;;11.41;51.81;99205.78;5089514;28;20468;-73
2022/03/30 04:23:03;;;;;;;18.67;9.55;;;;;;;11.35;52.05;99193.03;5089493;28;20028;-72
2022/03/30 04:25:28;;;;;;;16.35;9.05;;;;;;;11.35;52.22;99195.72;5086460;28;20036;-72
2022/03/30 04:27:54;;;;;;;15.77;10.15;;;;;;;11.34;52.65;99196.72;5090150;28;20089;-72
2022/03/30 04:30:20;;;;;;;18.13;10.18;;;;;;;11.31;52.82;99199.75;5089185;28;20048;-72
2022/03/30 04:32:46;;;;;;;27.88;9.75;;;;;;;11.33;52.78;99213.84;5088097;28;20024;-72
2022/03/30 04:35:24;;;;;;;16.60;9.63;;;;;;;11.30;52.84;99216.88;5088312;28;20805;-72
2022/03/30 04:37:51;;;;;;;21.52;10.35;;;;;;;11.23;53.13;99217.69;5087751;28;20036;-72
2022/03/30 04:40:16;;;;;;;16.90;9.82;;;;;;;11.18;53.40;99222.69;5087458;28;20024;-72
2022/03/30 04:42:42;;;;;;;16.02;9.40;;;;;;;11.18;53.72;99225.38;5087386;28;20047;-72
2022/03/30 04:45:07;;;;;;;17.25;9.80;;;;;;;11.05;53.59;99207.09;5088041;28;20028;-72
2022/03/30 04:47:33;;;;;;;15.73;9.70;;;;;;;11.03;53.94;99213.63;5089648;28;20032;-72
2022/03/30 04:49:58;;;;;;;25.13;10.32;;;;;;;11.04;53.66;99218.00;5089427;28;20032;-72
2022/03/30 04:52:24;;;;;;;15.55;9.23;;;;;;;11.05;54.09;99228.56;5088225;28;20038;-72
2022/03/30 04:54:49;;;;;;;17.88;9.70;;;;;;;11.04;54.38;99231.41;5089866;28;20032;-72
2022/03/30 04:57:15;;;;;;;22.88;9.95;;;;;;;11.03;54.45;99233.25;5089388;28;20038;-72
2022/03/30 04:59:40;;;;;;;18.95;9.60;;;;;;;11.03;54.80;99238.59;5088102;28;20031;-72
2022/03/30 05:02:05;;;;;;;17.20;10.00;;;;;;;11.07;54.65;99239.13;5088544;28;20519;-71
2022/03/30 05:04:33;;;;;;;21.10;9.82;;;;;;;10.94;55.09;99214.63;5089568;28;20379;-71
2022/03/30 05:06:58;;;;;;;16.27;9.20;;;;;;;10.95;55.20;99225.19;5090878;28;20020;-71
2022/03/30 05:09:24;;;;;;;15.73;9.82;;;;;;;11.05;55.67;99239.28;5089175;28;20036;-72
2022/03/30 05:11:50;;;;;;;21.23;10.30;;;;;;;11.11;55.75;99240.47;5090181;28;20039;-71
2022/03/30 05:14:16;;;;;;;18.42;9.93;;;;;;;11.09;55.43;99240.63;5089600;28;20032;-72
2022/03/30 05:16:41;;;;;;;13.18;8.82;;;;;;;11.16;55.47;99241.66;5088414;28;20032;-72
2022/03/30 05:19:07;;;;;;;18.23;9.88;;;;;;;11.07;55.85;99226.53;5091046;28;20024;-72
2022/03/30 05:21:32;;;;;;;28.77;9.45;;;;;;;11.17;55.92;99239.81;5090441;28;20028;-72
2022/03/30 05:23:58;;;;;;;23.70;9.38;;;;;;;11.24;56.08;99249.75;5090611;28;20023;-72
2022/03/30 05:26:23;;;;;;;15.75;9.82;;;;;;;11.20;56.66;99229.59;5089521;28;20484;-72
2022/03/30 05:28:49;;;;;;;23.42;9.60;;;;;;;11.23;56.45;99231.94;5090331;28;20087;-72
2022/03/30 05:31:14;;;;;;;19.45;9.10;;;;;;;11.32;56.75;99241.69;5090162;28;20051;-71
2022/03/30 05:33:39;;;;;;;16.45;10.32;;;;;;;11.38;56.66;99237.50;5090482;28;20024;-72
2022/03/30 05:36:07;;;;;;;17.17;9.20;;;;;;;11.39;57.25;99234.63;5089087;28;20044;-72
2022/03/30 05:38:34;;;;;;;20.60;9.30;;;;;;;11.31;57.25;99213.16;5090105;28;20032;-72
2022/03/30 05:40:59;;;;;;;18.77;9.05;;;;;;;11.37;57.20;99225.94;5090592;28;20688;-72
2022/03/30 05:43:25;;;;;;;22.63;9.73;;;;;;;11.42;57.36;99218.19;5089896;28;20034;-72
2022/03/30 05:45:51;;;;;;;18.35;9.52;;;;;;;11.60;57.39;99238.72;5089493;28;20028;-73
2022/03/30 05:48:17;;;;;;;20.40;9.98;;;;;;;11.66;57.25;99240.72;5088082;28;20024;-72
2022/03/30 05:50:42;;;;;;;21.20;9.38;;;;;;;11.66;56.93;99225.47;5090161;28;20054;-72
2022/03/30 05:53:08;;;;;;;15.70;9.43;;;;;;;11.80;57.29;99232.03;5089804;28;20024;-72
2022/03/30 05:55:34;;;;;;;22.48;9.57;;;;;;;11.93;56.61;99235.84;5089882;28;20077;-72
2022/03/30 05:57:59;;;;;;;15.90;8.45;;;;;;;11.96;57.15;99232.00;5089151;28;20024;-72
2022/03/30 06:00:25;;;;;;;17.73;9.30;;;;;;;12.01;56.99;99230.47;5089647;28;20035;-72
2022/03/30 06:02:50;;;;;;;17.73;9.52;;;;;;;12.20;56.49;99242.72;5088536;28;20055;-76
2022/03/30 06:05:16;;;;;;;17.48;8.65;;;;;;;12.16;56.50;99228.75;5089969;28;20027;-75
2022/03/30 06:07:41;;;;;;;16.58;9.00;;;;;;;12.22;56.54;99233.44;5090288;28;20073;-75
2022/03/30 06:10:07;;;;;;;18.35;10.35;;;;;;;12.36;56.41;99237.28;5088690;28;20040;-75
2022/03/30 06:12:33;;;;;;;15.55;8.85;;;;;;;12.46;56.12;99235.25;5086678;28;20035;-75
2022/03/30 06:14:58;;;;;;;15.43;9.55;;;;;;;12.45;55.74;99225.50;5090067;28;20488;-75
2022/03/30 06:17:24;;;;;;;18.45;9.18;;;;;;;12.70;55.22;99248.59;5088648;28;20031;-75
2022/03/30 06:19:52;;;;;;;17.10;8.90;;;;;;;12.81;54.53;99240.16;5088838;28;20035;-76
2022/03/30 06:22:19;;;;;;;19.48;9.20;;;;;;;12.82;55.03;99242.69;5087420;28;20020;-76
2022/03/30 06:24:45;;;;;;;16.52;8.05;;;;;;;12.94;54.59;99230.53;5089672;28;20092;-76
2022/03/30 06:27:11;;;;;;;18.63;9.60;;;;;;;13.03;54.68;99244.81;5089863;28;20532;-76
2022/03/30 06:29:39;;;;;;;16.88;9.30;;;;;;;13.28;53.61;99255.25;5093411;28;20032;-76
2022/03/30 06:32:05;;;;;;;19.25;9.27;;;;;;;13.30;53.66;99239.75;5091442;28;20058;-76
2022/03/30 06:34:31;;;;;;;15.63;8.60;;;;;;;13.40;52.81;99221.50;5093507;28;20062;-75
2022/03/30 06:36:56;;;;;;;13.05;8.68;;;;;;;13.60;52.42;99233.47;5092243;28;20024;-75
2022/03/30 06:39:22;;;;;;;17.52;8.45;;;;;;;13.82;52.12;99241.72;5093485;28;20035;-75
2022/03/30 06:41:48;;;;;;;19.83;8.70;;;;;;;14.04;51.88;99244.38;5093350;28;20027;-76
2022/03/30 06:44:15;;;;;;;18.27;8.73;;;;;;;14.16;51.01;99237.53;5093267;28;20112;-76
2022/03/30 06:46:41;;;;;;;17.10;8.30;;;;;;;14.21;51.51;99245.06;5092067;28;20020;-76
2022/03/30 06:49:12;;;;;;;17.08;8.82;;;;;;;14.39;50.50;99240.19;5093151;28;20031;-76
2022/03/30 06:51:38;;;;;;;16.25;9.02;;;;;;;14.44;50.75;99252.09;5091573;28;20035;-76
2022/03/30 06:54:03;;;;;;;19.95;8.30;;;;;;;14.57;49.89;99238.78;5090933;28;20024;-76
2022/03/30 06:56:29;;;;;;;17.33;8.18;;;;;;;14.79;49.06;99253.19;5092996;28;20502;-75
2022/03/30 06:58:54;;;;;;;15.32;8.60;;;;;;;14.82;49.21;99242.88;5093057;28;20028;-76
2022/03/30 07:01:20;;;;;;;19.45;8.93;;;;;;;14.86;49.42;99251.44;5091772;28;20028;-76
2022/03/30 07:03:46;;;;;;;13.98;8.45;;;;;;;14.94;49.49;99256.75;5093024;28;20102;-75
2022/03/30 07:06:11;;;;;;;13.82;8.40;;;;;;;14.97;49.26;99251.81;5091613;28;20115;-75
2022/03/30 07:11:21;;;;;;;14.77;9.00;;;;;;;15.38;47.87;99257.53;5090961;28;20030;-76
2022/03/30 07:13:46;;;;;;;20.38;9.73;;;;;;;15.48;47.61;99255.34;5090094;28;20027;-76
2022/03/30 07:16:12;;;;;;;18.55;9.77;;;;;;;15.85;46.85;99258.66;5092373;28;20119;-76
2022/03/30 07:18:37;;;;;;;20.02;8.90;;;;;;;16.02;46.11;99266.50;5092743;28;20074;-75
2022/03/30 07:21:03;;;;;;;17.08;8.50;;;;;;;16.07;46.12;99266.72;5092746;28;20056;-76
2022/03/30 07:23:28;;;;;;;23.25;8.90;;;;;;;16.15;45.66;99256.59;5091574;28;20039;-76
2022/03/30 07:25:54;;;;;;;21.13;8.38;;;;;;;16.12;45.93;99248.88;5092426;28;20032;-76
2022/03/30 07:28:20;;;;;;;17.90;8.65;;;;;;;16.32;45.60;99252.59;5092547;28;20054;-76
2022/03/30 07:30:48;;;;;;;15.73;8.57;;;;;;;16.48;45.29;99256.88;5091096;28;20094;-75
2022/03/30 07:33:15;;;;;;;15.27;9.30;;;;;;;16.60;44.72;99244.47;5092482;28;20028;-76
2022/03/30 07:35:46;;;;;;;18.02;8.07;;;;;;;16.66;44.99;99249.91;5091218;28;20038;-76
2022/03/30 07:38:15;;;;;;;20.15;8.25;;;;;;;16.86;44.33;99247.34;5092380;28;20432;-76
2022/03/30 07:40:41;;;;;;;14.63;8.40;;;;;;;16.76;44.38;99247.69;5090006;28;20027;-77
2022/03/30 07:43:07;;;;;;;13.85;8.88;;;;;;;16.86;44.15;99239.22;5091079;28;20034;-76
2022/03/30 07:45:33;;;;;;;12.95;9.10;;;;;;;16.90;44.50;99254.84;5092505;28;20039;-76
2022/03/30 07:47:59;;;;;;;18.20;9.27;;;;;;;16.88;44.14;99258.78;5091033;28;20028;-77
2022/03/30 07:50:24;;;;;;;16.88;8.52;;;;;;;16.84;44.27;99246.69;5091959;28;20068;-76
2022/03/30 07:52:50;;;;;;;14.23;8.98;;;;;;;16.84;44.24;99238.56;5092197;28;20031;-76
2022/03/30 07:55:16;;;;;;;14.65;8.80;;;;;;;16.86;44.30;99244.63;5090812;28;20024;-76
2022/03/30 07:57:42;;;;;;;18.05;8.73;;;;;;;16.83;44.54;99245.03;5091878;28;20029;-75
2022/03/30 08:00:10;;;;;;;14.48;8.43;;;;;;;17.02;44.83;99265.94;5092074;28;20380;-76
2022/03/30 08:02:39;;;;;;;17.58;8.73;;;;;;;17.20;43.92;99258.09;5107078;22;20036;-69
2022/03/30 08:05:05;;;;;;;19.10;9.45;;;;;;;17.57;43.06;99273.88;5101644;28;20027;-69
2022/03/30 08:07:30;;;;;;;14.43;8.90;;;;;;;17.78;42.47;99263.75;5096690;28;20042;-69
2022/03/30 08:09:57;;;;;;;14.07;8.80;;;;;;;17.62;42.81;99260.56;5099718;28;20027;-69
2022/03/30 08:12:24;;;;;;;15.55;9.00;;;;;;;17.51;43.31;99258.47;5082355;28;20016;-69
2022/03/30 08:14:51;;;;;;;16.88;8.50;;;;;;;17.59;43.37;99260.97;5082829;28;20020;-65
2022/03/30 08:17:17;;;;;;;15.75;8.85;;;;;;;17.79;42.90;99251.84;5096712;28;20073;-66
2022/03/30 08:19:43;;;;;;;16.08;9.60;;;;;;;17.98;42.32;99267.31;5096475;28;20042;-66
2022/03/30 08:22:28;;;;;;;14.25;8.32;;;;;;;18.06;42.30;99282.56;5083936;28;20028;-66
2022/03/30 08:25:00;;;;;;;13.77;8.55;;;;;;;17.98;42.22;99275.44;5091364;28;20047;-66
2022/03/30 08:27:28;;;;;;;17.10;8.90;;;;;;;17.98;42.58;99277.31;5091056;28;20515;-66
2022/03/30 08:29:55;;;;;;;17.63;8.70;;;;;;;17.87;42.45;99269.81;5091023;28;20382;-66
2022/03/30 08:32:21;;;;;;;13.68;9.43;;;;;;;17.77;42.72;99270.19;5090820;28;20044;-66
2022/03/30 08:34:49;;;;;;;16.15;8.95;;;;;;;17.71;43.24;99278.31;5091039;28;20051;-65
2022/03/30 08:37:14;;;;;;;16.55;8.77;;;;;;;17.71;43.03;99264.75;5090995;28;20133;-65
2022/03/30 08:39:40;;;;;;;15.13;9.10;;;;;;;17.77;42.77;99280.22;5090884;28;20028;-66
2022/03/30 08:42:07;;;;;;;15.85;9.07;;;;;;;17.66;43.32;99278.09;5072275;28;20039;-66
2022/03/30 08:44:34;;;;;;;15.50;8.35;;;;;;;17.63;43.54;99284.75;5090724;28;20031;-66
2022/03/30 08:47:00;;;;;;;16.88;8.68;;;;;;;17.79;43.50;99287.09;5090591;28;20661;-66
2022/03/30 08:49:27;;;;;;;14.85;8.75;;;;;;;17.99;42.90;99289.84;5090587;28;20024;-67
2022/03/30 08:51:54;;;;;;;21.98;8.75;;;;;;;18.20;42.75;99276.09;5090551;28;20020;-67
2022/03/30 08:54:20;;;;;;;16.73;7.95;;;;;;;18.37;42.29;99285.50;5090518;28;20035;-65
2022/03/30 08:56:47;;;;;;;18.45;8.52;;;;;;;18.52;41.97;99296.16;5091142;28;20020;-68
2022/03/30 08:59:19;;;;;;;13.30;8.43;;;;;;;18.68;41.72;99285.69;5091054;28;20036;-65
2022/03/30 09:01:45;;;;;;;16.52;8.68;;;;;;;18.75;41.26;99286.50;5090766;28;20047;-66
2022/03/30 09:04:13;;;;;;;18.10;8.30;;;;;;;18.76;41.13;99287.34;5090018;28;20048;-66
2022/03/30 09:06:42;;;;;;;13.82;7.85;;;;;;;18.71;41.05;99279.84;5090484;28;20051;-65
2022/03/30 09:09:08;;;;;;;17.45;8.48;;;;;;;18.79;41.33;99285.03;5090749;28;20505;-69
2022/03/30 09:11:45;;;;;;;20.58;8.52;;;;;;;18.85;41.03;99295.06;5072752;28;20024;-69
2022/03/30 09:14:12;;;;;;;15.05;8.30;;;;;;;18.85;41.25;99292.34;5090998;28;20620;-69
2022/03/30 09:16:38;;;;;;;14.82;8.60;;;;;;;18.75;41.31;99291.94;5091069;28;20158;-69
2022/03/30 09:19:04;;;;;;;15.75;9.07;;;;;;;18.65;41.29;99277.97;5090494;28;20103;-65
2022/03/30 09:21:51;;;;;;;12.32;8.32;;;;;;;18.68;41.17;99290.28;5090116;28;20027;-67
2022/03/30 09:24:23;;;;;;;16.58;9.45;;;;;;;18.75;41.09;99286.50;5071925;28;20019;-66
2022/03/30 09:26:50;;;;;;;22.10;8.60;;;;;;;18.90;40.49;99281.69;5090314;28;20024;-66
2022/03/30 09:29:19;;;;;;;19.40;8.80;;;;;;;19.06;39.87;99273.03;5090159;28;20059;-66
2022/03/30 09:31:50;;;;;;;13.10;8.02;;;;;;;19.17;39.43;99269.66;5090254;28;20487;-66
2022/03/30 09:34:16;;;;;;;13.88;9.23;;;;;;;19.07;39.47;99263.84;5090036;28;20407;-66
2022/03/30 09:36:43;;;;;;;15.73;8.32;;;;;;;19.09;39.50;99274.50;5089853;28;20036;-66
2022/03/30 09:39:27;;;;;;;17.75;8.73;;;;;;;19.00;39.22;99256.78;5089863;28;20110;-66
2022/03/30 09:41:54;;;;;;;14.98;8.80;;;;;;;19.21;39.27;99264.63;5089942;28;20142;-66
2022/03/30 09:44:21;;;;;;;17.60;8.57;;;;;;;19.22;39.01;99263.59;5090072;28;20373;-65
2022/03/30 09:46:54;;;;;;;16.67;8.73;;;;;;;19.20;39.28;99254.81;5071719;28;20061;-66
2022/03/30 09:49:53;;;;;;;17.25;9.15;;;;;;;19.26;38.82;99252.09;5089853;28;20024;-65
2022/03/30 09:52:20;;;;;;;15.32;8.73;;;;;;;19.28;39.12;99246.47;5035353;28;20036;-66
2022/03/30 09:55:04;;;;;;;21.23;8.60;;;;;;;19.18;38.82;99244.16;5071840;28;20027;-66
2022/03/30 09:57:32;;;;;;;19.25;8.90;;;;;;;19.27;38.69;99252.91;5089368;28;20435;-65
2022/03/30 10:00:14;;;;;;;20.55;8.27;;;;;;;19.30;39.12;99257.94;5089665;28;21191;-65
2022/03/30 10:02:43;;;;;;;20.63;9.38;;;;;;;19.29;38.84;99262.56;5090559;28;20024;-65
2022/03/30 10:05:14;;;;;;;20.38;8.57;;;;;;;19.30;38.84;99255.22;5094073;28;20051;-68
2022/03/30 10:07:40;;;;;;;22.20;10.20;;;;;;;19.25;39.29;99258.53;5094952;28;20437;-69
2022/03/30 10:10:08;;;;;;;15.32;8.55;;;;;;;19.20;38.91;99250.22;5094764;28;20054;-69
2022/03/30 10:12:34;;;;;;;20.42;8.20;;;;;;;18.98;39.54;99239.84;5095133;28;20023;-69
2022/03/30 10:15:00;;;;;;;14.93;8.68;;;;;;;18.95;40.12;99238.38;5094910;28;20533;-69
2022/03/30 10:17:28;;;;;;;19.63;8.80;;;;;;;18.96;39.89;99241.94;5094732;28;20102;-69
2022/03/30 10:19:57;;;;;;;16.23;9.05;;;;;;;18.96;39.56;99241.94;5076312;28;20032;-70
2022/03/30 10:22:47;;;;;;;26.10;9.25;;;;;;;18.86;39.76;99238.84;5094682;28;20028;-70
2022/03/30 10:25:47;;;;;;;19.80;9.50;;;;;;;18.73;39.60;99239.69;5094753;28;20479;-66
2022/03/30 10:28:43;;;;;;;17.42;8.10;;;;;;;18.73;39.51;99236.16;5093570;28;20422;-65
2022/03/30 10:31:10;;;;;;;24.60;9.55;;;;;;;18.85;39.09;99224.41;5093426;28;20099;-66
2022/03/30 10:33:41;;;;;;;21.83;9.13;;;;;;;18.82;39.04;99224.84;5075411;28;20096;-66
2022/03/30 10:36:27;;;;;;;19.25;9.38;;;;;;;18.76;39.31;99209.41;5093683;28;20072;-66
2022/03/30 10:39:26;;;;;;;19.52;8.57;;;;;;;18.84;39.05;99209.16;5093864;28;20093;-66
2022/03/30 10:42:12;;;;;;;19.13;9.00;;;;;;;18.56;39.56;99208.63;5094153;28;20024;-65
2022/03/30 10:44:42;;;;;;;17.88;7.93;;;;;;;18.52;39.82;99209.25;5107839;28;20467;-65
2022/03/30 10:47:13;;;;;;;18.88;8.13;;;;;;;18.53;39.46;99209.03;5113479;28;20056;-66
2022/03/30 10:49:41;;;;;;;18.13;8.43;;;;;;;18.64;39.36;99213.00;5094785;28;20110;-65
2022/03/30 10:52:35;;;;;;;17.25;8.70;;;;;;;18.45;39.83;99201.13;5093879;28;20085;-66
2022/03/30 10:55:12;;;;;;;17.90;8.77;;;;;;;18.42;40.33;99193.41;5112821;28;20064;-66
2022/03/30 10:57:58;;;;;;;18.73;7.57;;;;;;;18.50;39.73;99190.44;5092516;28;20053;-66
2022/03/30 11:00:36;;;;;;;18.27;8.23;;;;;;;18.46;40.12;99178.34;5094581;28;20028;-66
2022/03/30 11:03:20;;;;;;;19.33;7.57;;;;;;;18.41;40.26;99185.47;5112624;28;20460;-66
2022/03/30 11:06:18;;;;;;;18.30;8.43;;;;;;;18.39;40.79;99179.41;5112419;28;20039;-66
2022/03/30 11:08:45;;;;;;;18.50;7.63;;;;;;;18.39;40.95;99177.53;5056072;28;20371;-65
2022/03/30 11:11:35;;;;;;;18.67;8.18;;;;;;;18.33;40.88;99161.22;5112739;28;20424;-65
2022/03/30 11:14:27;;;;;;;17.73;7.55;;;;;;;18.37;40.79;99170.63;5111595;28;20474;-66
2022/03/30 11:17:03;;;;;;;16.73;7.75;;;;;;;18.36;41.04;99166.22;5112887;28;20379;-66
2022/03/30 11:19:55;;;;;;;18.23;7.82;;;;;;;18.35;40.86;99165.41;5094189;28;20024;-65
2022/03/30 11:22:36;;;;;;;22.70;8.70;;;;;;;18.32;41.34;99167.72;5094491;28;20040;-69
2022/03/30 11:25:18;;;;;;;16.08;8.02;;;;;;;18.36;41.32;99174.38;5113739;28;20027;-69
2022/03/30 11:27:47;;;;;;;17.90;8.55;;;;;;;18.36;41.44;99174.38;5113456;28;20382;-69
2022/03/30 11:30:14;;;;;;;14.95;7.53;;;;;;;18.42;41.10;99173.56;5113369;28;20111;-69
2022/03/30 11:32:52;;;;;;;11.93;7.82;;;;;;;18.39;41.47;99163.13;5094625;28;20055;-69
2022/03/30 11:35:20;;;;;;;14.88;8.13;;;;;;;18.35;41.19;99162.69;5114548;28;20062;-70